Riparius, NY (12862)

6:24 PM EDT on September 02, 2015 (GMT -0400)
Old River Road | | Change Station
CLOSE
Current Station
Personal Weather Station
Location: North Creek, NY
Elevation: 1030 ft
Nearby Weather Stations

Elev 1030 ft 43.71 °N, 73.99 °W | Updated 14 seconds ago

Clear
Clear
82.3 °F
Feels Like 86 °F
N
0.0
Wind Variable Wind from West
Gusts 0.0 mph

Today
High -- | Low -- °F
--% Chance of Precip.
Yesterday
High -- | Low -- °F
Precip. -- in
6:20 AM 7:29 PM
Waning Gibbous, 76% visible
Pressure 29.88 in
Visibility 10.0 miles
Clouds Clear
Heat Index 86 °F
Dew Point 69 °F
Humidity 65%
Rainfall 0.00 in
Snow Depth Not available.
UV 1 out of 12
Pollen 9.30 out of 12
Air Quality Not available.
Flu Activity Not available.
METAR KGFL 022153Z AUTO 18004KT 10SM CLR 28/19 A2988 RMK AO2 SLP116 T02830194
Pressure 29.88 in
Visibility 10.0 miles
Clouds Clear
Heat Index 86 °F
Dew Point 69 °F
Humidity 65%
Rainfall 0.00 in
Snow Depth Not available.
UV 1 out of 12
Pollen 9.30 out of 12
Air Quality Not available.
Flu Activity Not available.
METAR KGFL 022153Z AUTO 18004KT 10SM CLR 28/19 A2988 RMK AO2 SLP116 T02830194

10-Day Weather Forecast

×

Almanac

Astronomy

Sep. 02, 2015 Rise Set
Actual Time
Civil Twilight
Nautical Twilight
Astronomical Twilight
Moon
Length of Visible Light
Length of Day
Tomorrow will be .
, % of the Moon is Illuminated

Today's Extremes

State Highs State Lows

Community

WunderPhotos

Upload Photos

1,851,828 photos uploaded!

WunderBlogs® & News

Nearby

Air Quality

  Air Quality AQ Index Pollutant
Not available.

Snow Depth

Station Depth Elevation

Earthquake Activity

City Distance Mag. Time & Date
Minimum magnitude displayed is 2.5.

Coastal Water Temperatures

Place Temperature

Stations

Nearby Weather Stations

Station Location Temp. Windchill Dew Point Humidity Wind Precip. Elev Updated Type